Time;durP1;ratioP1;P1;durP2;ratioP2;P2;SDS_P1;SDS_P2;PMS_P1;PMS_P2;Temp;Humidity;BMP_temperature;BMP_pressure;BME280_temperature;BME280_humidity;BME280_pressure;Samples;Min_cycle;Max_cycle;Signal;HPM_P1;HPM_P2
2022/12/16 00:01:40;;;;;;;16.30;8.32;;;19.80;99.90;;;;;;5000483;28;20050;-55
2022/12/16 00:04:06;;;;;;;17.27;7.82;;;19.70;99.90;;;;;;5013538;28;20032;-54
2022/12/16 00:06:33;;;;;;;12.52;7.95;;;19.70;99.90;;;;;;5014281;28;20365;-58
2022/12/16 00:08:59;;;;;;;12.13;8.35;;;19.70;99.90;;;;;;5014855;28;20030;-57
2022/12/16 00:11:25;;;;;;;12.70;7.53;;;19.70;99.90;;;;;;5013735;28;20099;-56
2022/12/16 00:13:51;;;;;;;16.00;8.07;;;19.70;99.90;;;;;;5013293;28;20026;-57
2022/12/16 00:16:19;;;;;;;12.63;7.50;;;19.70;99.90;;;;;;5013665;28;20033;-58
2022/12/16 00:18:46;;;;;;;13.98;7.63;;;19.70;99.90;;;;;;5013712;28;20030;-56
2022/12/16 00:21:12;;;;;;;11.53;6.87;;;19.70;99.90;;;;;;5013991;28;20033;-55
2022/12/16 00:23:40;;;;;;;16.35;8.05;;;19.70;99.90;;;;;;5012504;28;20499;-58
2022/12/16 00:26:07;;;;;;;10.77;6.93;;;19.70;99.90;;;;;;4995633;28;20069;-57
2022/12/16 00:28:33;;;;;;;10.98;7.30;;;19.70;99.90;;;;;;5013925;28;20025;-57
2022/12/16 00:30:59;;;;;;;13.43;7.53;;;19.70;99.90;;;;;;5012943;28;20490;-54
2022/12/16 00:33:26;;;;;;;11.25;7.53;;;19.70;99.90;;;;;;5013299;28;20105;-55
2022/12/16 00:35:52;;;;;;;13.65;7.32;;;19.70;99.90;;;;;;5013655;28;20404;-54
2022/12/16 00:38:19;;;;;;;13.50;6.93;;;19.70;99.90;;;;;;5012441;28;20021;-56
2022/12/16 00:40:44;;;;;;;14.05;8.23;;;19.70;99.90;;;;;;5013168;28;20034;-54
2022/12/16 00:43:10;;;;;;;13.32;6.70;;;19.70;99.90;;;;;;4995940;28;20080;-54
2022/12/16 00:45:37;;;;;;;11.90;7.75;;;19.70;99.90;;;;;;5013261;28;20483;-54
2022/12/16 00:48:03;;;;;;;15.15;8.02;;;19.70;99.90;;;;;;5013302;28;20105;-55
2022/12/16 00:50:29;;;;;;;15.20;7.55;;;19.60;99.90;;;;;;5013237;28;20121;-55
2022/12/16 00:52:55;;;;;;;12.07;7.05;;;19.60;99.90;;;;;;5013061;28;20038;-54
2022/12/16 00:55:21;;;;;;;10.27;6.60;;;19.60;99.90;;;;;;5013253;28;20030;-54
2022/12/16 00:57:46;;;;;;;12.95;7.78;;;19.60;99.90;;;;;;5012896;28;20101;-54
2022/12/16 01:00:13;;;;;;;11.85;7.50;;;19.60;99.90;;;;;;5013046;28;20041;-54
2022/12/16 01:02:44;;;;;;;12.10;7.53;;;19.60;99.90;;;;;;5011582;28;20076;-55
2022/12/16 01:05:11;;;;;;;14.93;7.15;;;19.60;99.90;;;;;;4982261;28;20396;-58
2022/12/16 01:07:37;;;;;;;11.85;7.20;;;19.60;99.90;;;;;;5013348;28;20091;-55
2022/12/16 01:10:05;;;;;;;11.55;6.47;;;19.60;99.90;;;;;;5013325;28;20030;-54
2022/12/16 01:12:31;;;;;;;11.23;7.50;;;19.60;99.90;;;;;;5009931;28;20034;-54
2022/12/16 01:14:57;;;;;;;11.55;7.07;;;19.60;99.90;;;;;;5012984;28;20492;-54
2022/12/16 01:17:24;;;;;;;12.65;6.80;;;19.60;99.90;;;;;;5013038;28;20053;-54
2022/12/16 01:19:51;;;;;;;10.68;6.78;;;19.60;99.90;;;;;;5011871;28;20455;-56
2022/12/16 01:22:17;;;;;;;12.88;6.60;;;19.60;99.90;;;;;;5010256;28;20069;-55
2022/12/16 01:24:43;;;;;;;9.88;6.15;;;19.60;99.90;;;;;;5011214;28;20053;-55
2022/12/16 01:27:09;;;;;;;13.40;7.03;;;19.60;99.90;;;;;;5012237;28;20022;-54
2022/12/16 01:29:35;;;;;;;10.57;5.90;;;19.60;99.90;;;;;;5012727;28;20042;-55
2022/12/16 01:32:01;;;;;;;10.88;6.38;;;19.60;99.90;;;;;;5012699;28;20072;-55
2022/12/16 01:34:27;;;;;;;9.88;6.13;;;19.60;99.90;;;;;;5012173;28;20034;-55
2022/12/16 01:36:52;;;;;;;10.23;6.10;;;19.60;99.90;;;;;;5012636;28;20029;-53
2022/12/16 01:39:18;;;;;;;10.82;6.22;;;19.60;99.90;;;;;;4994870;28;20030;-55
2022/12/16 01:41:44;;;;;;;10.63;6.18;;;19.60;99.90;;;;;;4994113;28;20029;-56
2022/12/16 01:44:22;;;;;;;11.98;6.53;;;19.60;99.90;;;;;;5011890;28;20018;-55
2022/12/16 01:46:54;;;;;;;10.95;6.97;;;19.60;99.90;;;;;;5011877;28;20033;-56
2022/12/16 01:49:39;;;;;;;11.80;6.60;;;19.60;99.90;;;;;;5011513;28;20468;-56
2022/12/16 01:52:09;;;;;;;10.20;6.50;;;19.60;99.90;;;;;;5012001;28;20030;-53
2022/12/16 01:54:40;;;;;;;12.40;6.97;;;19.50;99.90;;;;;;5010849;28;20527;-55
2022/12/16 01:57:14;;;;;;;11.68;6.55;;;19.60;99.90;;;;;;5011692;28;20369;-54
2022/12/16 01:59:45;;;;;;;9.43;6.25;;;19.60;99.90;;;;;;5033274;22;20018;-60
2022/12/16 02:02:12;;;;;;;11.93;7.32;;;19.60;99.90;;;;;;5051383;28;20033;-58
2022/12/16 02:05:19;;;;;;;11.63;7.45;;;19.60;99.90;;;;;;5049778;28;20390;-56
2022/12/16 02:07:24;;;;;;;12.57;7.18;;;19.50;99.90;;;;;;5051190;28;20031;-56
2022/12/16 02:09:50;;;;;;;11.35;7.00;;;19.50;99.90;;;;;;5051299;28;20467;-58
2022/12/16 02:12:16;;;;;;;11.38;6.45;;;19.50;99.90;;;;;;5051325;28;20029;-56
2022/12/16 02:15:11;;;;;;;10.77;6.10;;;19.50;99.90;;;;;;5051079;28;20032;-60
2022/12/16 02:17:53;;;;;;;11.43;6.10;;;19.50;99.90;;;;;;5051444;28;20103;-59
2022/12/16 02:21:02;;;;;;;13.13;6.95;;;19.50;99.90;;;;;;5050941;28;20096;-59
2022/12/16 02:23:34;;;;;;;10.38;6.72;;;19.60;99.90;;;;;;5032993;28;20923;-64
2022/12/16 02:26:25;;;;;;;16.08;7.22;;;19.60;99.90;;;;;;5050971;28;20025;-55
2022/12/16 02:29:00;;;;;;;11.32;6.78;;;19.60;99.90;;;;;;5020415;28;20100;-55
2022/12/16 02:31:36;;;;;;;10.10;6.85;;;19.50;99.90;;;;;;5031870;28;20038;-54
2022/12/16 02:34:19;;;;;;;9.93;6.68;;;19.50;99.90;;;;;;5031676;28;20075;-55
2022/12/16 02:36:45;;;;;;;12.98;6.97;;;19.60;99.90;;;;;;5031478;28;20104;-56
2022/12/16 02:39:21;;;;;;;10.80;7.03;;;19.50;99.90;;;;;;5031639;28;20499;-57
2022/12/16 02:42:28;;;;;;;12.38;7.57;;;19.50;99.90;;;;;;5029885;28;20025;-54
2022/12/16 02:45:04;;;;;;;11.00;6.65;;;19.50;99.90;;;;;;5004435;28;20033;-53
2022/12/16 02:47:32;;;;;;;13.45;6.78;;;19.60;99.90;;;;;;5031482;28;20029;-54
2022/12/16 02:49:59;;;;;;;10.02;6.70;;;19.50;99.90;;;;;;5042156;28;20021;-58
2022/12/16 02:52:28;;;;;;;12.67;6.40;;;19.50;99.90;;;;;;5036704;28;20045;-60
2022/12/16 02:55:04;;;;;;;11.35;6.53;;;19.50;99.90;;;;;;4992250;28;20283;-60
2022/12/16 02:57:45;;;;;;;11.05;6.80;;;19.50;99.90;;;;;;5029674;28;20021;-60
2022/12/16 03:00:17;;;;;;;12.15;6.40;;;19.50;99.90;;;;;;5050547;22;20048;-57
2022/12/16 03:03:29;;;;;;;10.82;6.32;;;19.50;99.90;;;;;;5035230;28;20430;-55
2022/12/16 03:05:56;;;;;;;10.10;6.03;;;19.50;99.90;;;;;;4919770;29;20039;-57
2022/12/16 03:08:32;;;;;;;9.68;6.28;;;19.60;99.90;;;;;;4922541;29;20027;-54
2022/12/16 03:11:04;;;;;;;10.48;6.50;;;19.50;99.90;;;;;;4995220;28;20029;-56
2022/12/16 03:13:37;;;;;;;13.75;7.15;;;19.50;99.90;;;;;;5016199;28;20096;-57
2022/12/16 03:16:05;;;;;;;10.18;6.43;;;19.50;99.90;;;;;;5034639;28;20024;-56
2022/12/16 03:18:32;;;;;;;10.63;6.70;;;19.50;99.90;;;;;;5034563;28;20022;-56
2022/12/16 03:21:04;;;;;;;10.60;6.53;;;19.50;99.90;;;;;;5017229;28;20036;-55
2022/12/16 03:23:57;;;;;;;11.02;6.50;;;19.50;99.90;;;;;;5034828;28;20029;-55
2022/12/16 03:26:29;;;;;;;9.75;6.35;;;19.50;99.90;;;;;;5024239;28;20479;-56
2022/12/16 03:29:02;;;;;;;11.00;7.13;;;19.50;99.90;;;;;;5034614;28;20499;-56
2022/12/16 03:31:43;;;;;;;10.43;6.40;;;19.50;99.90;;;;;;5034591;28;20029;-56
2022/12/16 03:34:42;;;;;;;10.50;6.50;;;19.50;99.90;;;;;;5034438;28;20025;-56
2022/12/16 03:37:11;;;;;;;10.13;5.97;;;19.50;99.90;;;;;;5034564;28;20026;-55
2022/12/16 03:39:48;;;;;;;14.30;6.97;;;19.50;99.90;;;;;;5033634;28;20100;-57
2022/12/16 03:42:15;;;;;;;9.68;6.32;;;19.50;99.90;;;;;;5034341;28;20021;-58
2022/12/16 03:44:42;;;;;;;11.93;6.20;;;19.50;99.90;;;;;;5034807;28;20455;-57
2022/12/16 03:47:08;;;;;;;13.10;7.28;;;19.50;99.90;;;;;;5033186;28;20033;-56
2022/12/16 03:49:34;;;;;;;11.50;6.10;;;19.50;99.90;;;;;;5032422;28;20033;-57
2022/12/16 03:52:00;;;;;;;12.75;6.88;;;19.50;99.90;;;;;;5032817;28;20037;-57
2022/12/16 03:54:25;;;;;;;11.13;6.40;;;19.50;99.90;;;;;;5032675;28;20036;-57
2022/12/16 03:56:51;;;;;;;12.38;6.60;;;19.40;99.90;;;;;;5032024;28;20104;-57
2022/12/16 03:59:17;;;;;;;11.13;6.70;;;19.50;99.90;;;;;;5033540;28;20025;-57
2022/12/16 04:01:43;;;;;;;12.90;7.05;;;19.40;99.90;;;;;;5032495;28;20048;-58
2022/12/16 04:04:09;;;;;;;10.20;6.25;;;19.50;99.90;;;;;;5032653;28;20051;-58
2022/12/16 04:06:35;;;;;;;11.68;7.10;;;19.40;99.90;;;;;;5032966;28;20470;-58
2022/12/16 04:09:00;;;;;;;13.90;8.27;;;19.40;99.90;;;;;;5033304;28;20442;-58
2022/12/16 04:25:32;;;;;;;10.30;6.32;;;19.40;99.90;;;;;;5033349;28;20037;-57
2022/12/16 04:27:59;;;;;;;14.85;7.57;;;19.40;99.90;;;;;;5033313;28;20025;-56
2022/12/16 04:30:26;;;;;;;12.23;6.78;;;19.40;99.90;;;;;;5032328;28;20041;-56
